createdAt,value
2019-01-08T00:01:12.564Z,0.80
2019-01-08T00:03:42.989Z,0.80
2019-01-08T00:08:44.191Z,0.90
2019-01-08T00:11:16.319Z,0.90
2019-01-08T00:13:46.671Z,0.90
2019-01-08T00:16:18.295Z,0.90
2019-01-08T00:18:48.659Z,1.00
2019-01-08T00:21:19.061Z,1.00
2019-01-08T00:23:50.312Z,1.00
2019-01-08T00:26:20.927Z,1.00
2019-01-08T00:28:51.339Z,1.00
2019-01-08T00:31:23.991Z,1.00
2019-01-08T00:33:57.259Z,1.00
2019-01-08T00:36:27.599Z,1.10
2019-01-08T00:38:57.960Z,1.10
2019-01-08T00:41:28.354Z,1.10
2019-01-08T00:43:59.750Z,1.10
2019-01-08T00:46:30.127Z,1.10
2019-01-08T00:49:00.555Z,1.10
2019-01-08T00:51:30.948Z,1.10
2019-01-08T00:54:01.321Z,1.20
2019-01-08T00:56:31.787Z,1.20
2019-01-08T00:59:02.428Z,1.30
2019-01-08T01:01:32.785Z,1.30
2019-01-08T01:04:03.179Z,1.30
2019-01-08T01:06:33.531Z,1.40
2019-01-08T01:09:06.567Z,1.40
2019-01-08T01:11:37.495Z,1.40
2019-01-08T01:14:07.916Z,1.40
2019-01-08T01:16:38.298Z,1.50
2019-01-08T01:19:09.107Z,1.40
2019-01-08T01:21:39.479Z,1.50
2019-01-08T01:24:15.352Z,1.40
2019-01-08T01:26:46.388Z,1.50
2019-01-08T01:29:18.464Z,1.50
2019-01-08T01:34:18.488Z,1.60
2019-01-08T01:36:49.158Z,1.60
2019-01-08T01:39:21.204Z,1.70
2019-01-08T01:41:53.956Z,1.70
2019-01-08T01:44:24.339Z,1.70
2019-01-08T01:46:54.772Z,3.50
2019-01-08T01:49:25.464Z,1.70
2019-01-08T01:51:57.645Z,1.70
2019-01-08T01:54:28.038Z,1.70
2019-01-08T01:56:58.391Z,1.80
2019-01-08T01:59:28.744Z,1.80
2019-01-08T02:01:59.146Z,1.80
2019-01-08T02:04:29.613Z,1.80
2019-01-08T02:07:02.024Z,1.90
2019-01-08T02:09:33.436Z,1.90
2019-01-08T02:12:05.467Z,1.90
2019-01-08T02:14:35.921Z,1.90
2019-01-08T02:17:06.412Z,2.00
2019-01-08T02:19:37.644Z,2.00
2019-01-08T02:22:09.223Z,2.00
2019-01-08T02:24:40.156Z,2.10
2019-01-08T02:27:12.125Z,2.10
2019-01-08T02:29:43.912Z,2.10
2019-01-08T02:32:14.301Z,2.00
2019-01-08T02:34:44.763Z,2.00
2019-01-08T02:37:15.159Z,2.10
2019-01-08T02:39:47.807Z,2.10
2019-01-08T02:42:19.059Z,2.10
2019-01-08T02:44:51.024Z,2.20
2019-01-08T02:47:21.560Z,2.20
2019-01-08T02:49:51.937Z,2.10
2019-01-08T02:52:22.365Z,2.20
2019-01-08T02:54:52.793Z,2.30
2019-01-08T02:57:23.216Z,2.30
2019-01-08T02:59:53.552Z,2.30
2019-01-08T03:02:24.935Z,2.30
2019-01-08T03:04:55.299Z,2.30
2019-01-08T03:07:25.764Z,2.30
2019-01-08T03:09:56.179Z,2.30
2019-01-08T03:12:26.839Z,2.30
2019-01-08T03:14:58.289Z,2.30
2019-01-08T03:17:28.685Z,2.40
2019-01-08T03:22:28.816Z,2.40
2019-01-08T03:24:59.525Z,2.40
2019-01-08T03:27:29.924Z,2.40
2019-01-08T03:30:00.326Z,2.40
2019-01-08T03:32:30.763Z,2.30
2019-01-08T03:35:02.037Z,2.30
2019-01-08T03:37:32.467Z,2.30
2019-01-08T03:40:04.416Z,2.30
2019-01-08T03:42:34.748Z,2.30
2019-01-08T03:45:05.307Z,2.30
2019-01-08T03:47:36.907Z,2.30
2019-01-08T03:50:07.871Z,2.30
2019-01-08T03:52:39.347Z,2.30
2019-01-08T03:55:10.046Z,2.30
2019-01-08T03:57:40.544Z,2.30
2019-01-08T04:00:12.775Z,2.30
2019-01-08T04:02:43.194Z,2.30
2019-01-08T04:05:13.623Z,2.30
2019-01-08T04:07:43.975Z,2.30
2019-01-08T04:10:14.409Z,2.30
2019-01-08T04:12:44.799Z,2.40
2019-01-08T04:15:15.200Z,2.40
2019-01-08T04:17:45.552Z,2.40
2019-01-08T04:20:15.987Z,2.40
2019-01-08T04:22:46.607Z,2.40
2019-01-08T04:25:17.028Z,2.30
2019-01-08T04:27:47.392Z,2.40
2019-01-08T04:30:17.839Z,2.40
2019-01-08T04:32:48.602Z,2.40
2019-01-08T04:35:19.047Z,2.40
2019-01-08T04:37:49.556Z,2.40
2019-01-08T04:42:49.553Z,2.50
2019-01-08T04:47:49.655Z,2.50
2019-01-08T04:52:50.508Z,2.60
2019-01-08T04:55:21.200Z,2.60
2019-01-08T04:57:51.550Z,2.60
2019-01-08T05:00:22.206Z,2.60
2019-01-08T05:02:52.565Z,2.70
2019-01-08T05:05:22.940Z,2.70
2019-01-08T05:07:53.289Z,2.70
2019-01-08T05:10:23.860Z,2.80
2019-01-08T05:12:54.214Z,2.70
2019-01-08T05:15:24.643Z,2.80
2019-01-08T05:17:55.024Z,2.80
2019-01-08T05:20:25.419Z,2.90
2019-01-08T05:22:56.464Z,2.90
2019-01-08T05:25:28.180Z,2.90
2019-01-08T05:27:58.548Z,2.90
2019-01-08T05:30:28.879Z,2.90
2019-01-08T05:32:59.266Z,2.90
2019-01-08T05:35:31.220Z,2.80
2019-01-08T05:38:01.598Z,2.90
2019-01-08T05:40:31.936Z,2.80
2019-01-08T05:43:02.275Z,2.80
2019-01-08T05:45:32.732Z,2.80
2019-01-08T05:48:03.083Z,2.70
2019-01-08T05:53:03.077Z,2.70
2019-01-08T05:55:35.519Z,2.70
2019-01-08T05:58:05.855Z,2.70
2019-01-08T06:00:36.233Z,2.70
2019-01-08T06:03:06.647Z,2.70
2019-01-08T06:05:37.016Z,2.60
2019-01-08T06:08:07.360Z,2.70
2019-01-08T06:10:37.690Z,2.60
2019-01-08T06:13:08.139Z,2.70
2019-01-08T06:15:38.888Z,2.60
2019-01-08T06:18:09.260Z,2.60
2019-01-08T06:20:40.660Z,2.60
2019-01-08T06:23:11.048Z,2.60
2019-01-08T06:25:42.851Z,2.50
2019-01-08T06:28:13.192Z,2.60
2019-01-08T06:30:43.527Z,2.50
2019-01-08T06:33:13.919Z,2.50
2019-01-08T06:35:44.252Z,2.50
2019-01-08T06:38:15.411Z,2.50
2019-01-08T06:40:45.881Z,2.50
2019-01-08T06:43:17.599Z,2.50
2019-01-08T06:45:48.071Z,2.50
2019-01-08T06:48:18.428Z,2.50
2019-01-08T06:50:56.081Z,2.50
2019-01-08T06:53:20.916Z,2.50
2019-01-08T06:55:51.366Z,2.50
2019-01-08T06:58:21.812Z,2.50
2019-01-08T07:00:53.198Z,2.50
2019-01-08T07:03:23.616Z,2.60
2019-01-08T07:05:54.097Z,2.60
2019-01-08T07:08:24.444Z,2.60
2019-01-08T07:10:54.796Z,2.60
2019-01-08T07:13:25.179Z,2.60
2019-01-08T07:15:55.539Z,2.60
2019-01-08T07:18:25.939Z,2.70
2019-01-08T07:20:56.287Z,2.70
2019-01-08T07:23:26.664Z,2.60
2019-01-08T07:25:57.042Z,2.70
2019-01-08T07:28:29.266Z,2.70
2019-01-08T07:30:59.544Z,2.70
2019-01-08T07:33:30.839Z,2.80
2019-01-08T07:36:01.260Z,2.80
2019-01-08T07:38:31.701Z,2.80
2019-01-08T07:41:02.129Z,2.80
2019-01-08T07:43:32.520Z,2.90
2019-01-08T07:46:02.927Z,2.90
2019-01-08T07:48:33.380Z,2.90
2019-01-08T07:51:03.761Z,2.90
2019-01-08T07:53:35.504Z,2.90
2019-01-08T07:56:05.876Z,2.90
2019-01-08T07:58:36.355Z,2.90
2019-01-08T08:01:07.037Z,2.90
2019-01-08T08:03:37.511Z,3.00
2019-01-08T08:06:07.879Z,3.10
2019-01-08T08:08:38.260Z,3.10
2019-01-08T08:11:08.603Z,3.10
2019-01-08T08:13:38.989Z,3.20
2019-01-08T08:16:11.595Z,3.30
2019-01-08T08:18:41.984Z,3.30
2019-01-08T08:21:12.327Z,3.30
2019-01-08T08:23:42.805Z,3.40
2019-01-08T08:26:13.239Z,3.40
2019-01-08T08:28:43.676Z,3.40
2019-01-08T08:31:14.035Z,3.40
2019-01-08T08:33:44.441Z,3.50
2019-01-08T08:36:14.870Z,3.50
2019-01-08T08:38:45.291Z,3.50
2019-01-08T08:41:16.499Z,3.50
2019-01-08T08:43:46.855Z,3.50
2019-01-08T08:46:17.268Z,3.60
2019-01-08T08:48:47.607Z,3.70
2019-01-08T08:51:17.952Z,3.80
2019-01-08T08:53:52.703Z,3.90
2019-01-08T08:56:20.632Z,3.90
2019-01-08T08:58:51.011Z,4.00
2019-01-08T09:01:23.240Z,4.10
2019-01-08T09:03:53.706Z,4.10
2019-01-08T09:06:24.075Z,4.10
2019-01-08T09:08:54.469Z,4.00
2019-01-08T09:11:24.971Z,4.00
2019-01-08T09:13:55.319Z,4.20
2019-01-08T09:16:25.679Z,4.50
2019-01-08T09:18:56.084Z,4.90
2019-01-08T09:23:56.221Z,5.20
2019-01-08T09:26:27.584Z,5.90
2019-01-08T09:28:57.991Z,6.20
2019-01-08T09:31:28.364Z,6.30
2019-01-08T09:33:58.793Z,6.10
2019-01-08T09:36:29.141Z,6.10
2019-01-08T09:38:59.611Z,6.80
2019-01-08T09:41:30.052Z,7.30
2019-01-08T09:44:00.483Z,7.00
2019-01-08T09:46:30.837Z,6.40
2019-01-08T09:49:01.263Z,5.60
2019-01-08T09:51:32.612Z,5.60
2019-01-08T09:54:02.968Z,5.20
2019-01-08T09:56:34.668Z,5.00
2019-01-08T09:59:05.024Z,4.90
2019-01-08T10:01:35.387Z,5.00
2019-01-08T10:04:05.830Z,5.00
2019-01-08T10:06:36.199Z,5.00
2019-01-08T10:09:09.359Z,4.90
2019-01-08T10:11:41.332Z,5.00
2019-01-08T10:14:11.723Z,5.00
2019-01-08T10:16:42.076Z,4.90
2019-01-08T10:19:12.480Z,5.00
2019-01-08T10:21:43.135Z,4.90
2019-01-08T10:24:13.496Z,4.90
2019-01-08T10:26:43.892Z,5.00
2019-01-08T10:29:14.237Z,5.00
2019-01-08T10:31:44.600Z,5.00
2019-01-08T10:34:14.948Z,5.10
2019-01-08T10:36:45.356Z,5.20
2019-01-08T10:39:15.711Z,5.20
2019-01-08T10:41:46.181Z,5.20
2019-01-08T10:44:16.668Z,5.30
2019-01-08T10:46:47.040Z,5.20
2019-01-08T10:49:17.381Z,5.20
2019-01-08T10:51:48.712Z,5.20
2019-01-08T10:54:19.101Z,5.20
2019-01-08T10:56:52.159Z,5.20
2019-01-08T10:59:22.516Z,7.00
2019-01-08T11:01:52.887Z,5.30
2019-01-08T11:04:23.240Z,5.30
2019-01-08T11:06:53.590Z,5.40
2019-01-08T11:09:24.004Z,5.30
2019-01-08T11:11:54.357Z,5.30
2019-01-08T11:14:24.696Z,5.20
2019-01-08T11:16:55.120Z,5.20
2019-01-08T11:19:25.468Z,5.30
2019-01-08T11:21:55.855Z,5.30
2019-01-08T11:24:26.296Z,5.40
2019-01-08T11:26:56.683Z,5.40
2019-01-08T11:29:28.036Z,5.40
2019-01-08T11:31:58.419Z,5.60
2019-01-08T11:34:28.780Z,5.70
2019-01-08T11:36:59.456Z,5.60
2019-01-08T11:39:29.876Z,5.70
2019-01-08T11:42:00.239Z,5.70
2019-01-08T11:44:30.579Z,5.70
2019-01-08T11:47:00.969Z,5.70
2019-01-08T11:49:31.664Z,6.00
2019-01-08T11:52:02.071Z,6.20
2019-01-08T11:54:40.648Z,6.30
2019-01-08T11:57:04.909Z,6.40
2019-01-08T11:59:36.426Z,6.40
2019-01-08T12:02:06.979Z,6.10
2019-01-08T12:04:37.364Z,5.90
2019-01-08T12:07:07.778Z,5.90
2019-01-08T12:09:38.227Z,5.80
2019-01-08T12:12:10.479Z,5.80
2019-01-08T12:14:43.123Z,5.80
2019-01-08T12:17:14.343Z,5.70
2019-01-08T12:19:44.699Z,5.60
2019-01-08T12:22:15.076Z,5.60
2019-01-08T12:24:45.492Z,5.60
2019-01-08T12:27:16.811Z,5.60
2019-01-08T12:29:47.272Z,5.70
2019-01-08T12:32:18.896Z,5.70
2019-01-08T12:34:49.247Z,5.30
2019-01-08T12:37:19.607Z,5.30
2019-01-08T12:39:51.164Z,5.10
2019-01-08T12:42:21.668Z,5.00
2019-01-08T12:44:52.015Z,4.90
2019-01-08T12:47:22.451Z,4.90
2019-01-08T12:49:54.426Z,4.80
2019-01-08T12:52:25.912Z,4.90
2019-01-08T12:54:56.409Z,4.80
2019-01-08T12:57:26.890Z,4.80
2019-01-08T12:59:57.316Z,4.80
2019-01-08T13:02:27.756Z,4.80
2019-01-08T13:04:58.180Z,4.70
2019-01-08T13:07:30.663Z,4.80
2019-01-08T13:10:00.995Z,4.80
2019-01-08T13:15:01.143Z,4.90
2019-01-08T13:20:01.508Z,4.90
2019-01-08T13:22:32.027Z,4.80
2019-01-08T13:25:02.391Z,4.80
2019-01-08T13:27:32.876Z,4.80
2019-01-08T13:30:04.449Z,4.80
2019-01-08T13:32:34.927Z,4.80
2019-01-08T13:35:05.532Z,4.70
2019-01-08T13:37:36.244Z,4.70
2019-01-08T13:40:06.776Z,4.70
2019-01-08T13:42:37.154Z,4.80
2019-01-08T13:45:08.061Z,4.80
2019-01-08T13:47:38.470Z,4.80
2019-01-08T13:50:09.744Z,4.80
2019-01-08T13:52:41.236Z,4.70
2019-01-08T13:55:14.020Z,4.80
2019-01-08T13:57:44.473Z,4.80
2019-01-08T14:00:16.213Z,4.80
2019-01-08T14:02:46.737Z,4.80
2019-01-08T14:05:17.156Z,4.70
2019-01-08T14:07:47.568Z,4.70
2019-01-08T14:10:18.037Z,4.70
2019-01-08T14:12:51.459Z,4.70
2019-01-08T14:15:21.560Z,4.70
2019-01-08T14:17:51.972Z,4.70
2019-01-08T14:20:22.384Z,4.70
2019-01-08T14:22:52.730Z,4.70
2019-01-08T14:25:23.120Z,4.70
2019-01-08T14:27:53.755Z,4.70
2019-01-08T14:30:24.231Z,4.60
2019-01-08T14:32:54.620Z,4.60
2019-01-08T14:35:25.093Z,4.60
2019-01-08T14:37:55.531Z,4.70
2019-01-08T14:40:25.904Z,4.60
2019-01-08T14:42:56.253Z,4.60
2019-01-08T14:45:26.660Z,4.60
2019-01-08T14:47:57.059Z,4.60
2019-01-08T14:50:27.424Z,4.50
2019-01-08T14:52:57.792Z,4.60
2019-01-08T14:55:28.250Z,4.60
2019-01-08T14:57:58.647Z,4.60
2019-01-08T15:00:29.019Z,4.60
2019-01-08T15:02:59.420Z,4.50
2019-01-08T15:05:29.900Z,4.50
2019-01-08T15:08:00.276Z,4.40
2019-01-08T15:10:30.673Z,4.50
2019-01-08T15:13:01.091Z,4.40
2019-01-08T15:15:31.460Z,4.40
2019-01-08T15:18:01.868Z,4.40
2019-01-08T15:20:32.526Z,4.30
2019-01-08T15:23:03.070Z,4.20
2019-01-08T15:25:33.436Z,4.20
2019-01-08T15:28:03.856Z,4.20
2019-01-08T15:30:34.569Z,4.20
2019-01-08T15:33:04.959Z,4.10
2019-01-08T15:35:35.848Z,4.10
2019-01-08T15:38:06.303Z,4.10
2019-01-08T15:40:37.650Z,4.00
2019-01-08T15:43:08.135Z,4.00
2019-01-08T15:45:38.655Z,4.00
2019-01-08T15:48:09.343Z,4.00
2019-01-08T15:50:39.808Z,4.10
2019-01-08T15:53:10.198Z,4.10
2019-01-08T15:55:40.700Z,4.10
2019-01-08T15:58:11.086Z,4.10
2019-01-08T16:00:41.843Z,4.10
2019-01-08T16:05:42.792Z,4.10
2019-01-08T16:08:13.267Z,4.10
2019-01-08T16:10:44.107Z,4.10
2019-01-08T16:13:14.675Z,4.20
2019-01-08T16:15:45.351Z,4.20
2019-01-08T16:18:15.892Z,4.10
2019-01-08T16:20:46.535Z,4.10
2019-01-08T16:23:17.127Z,4.20
2019-01-08T16:28:17.563Z,4.20
2019-01-08T16:33:21.237Z,4.20
2019-01-08T16:35:52.165Z,4.20
2019-01-08T16:38:22.783Z,4.20
2019-01-08T16:40:53.493Z,4.20
2019-01-08T16:43:24.176Z,4.20
2019-01-08T16:45:54.819Z,4.30
2019-01-08T16:50:54.945Z,4.30
2019-01-08T16:53:25.340Z,4.40
2019-01-08T16:55:55.887Z,4.40
2019-01-08T16:58:26.352Z,4.40
2019-01-08T17:03:27.454Z,4.40
2019-01-08T17:05:58.144Z,4.40
2019-01-08T17:08:31.148Z,4.40
2019-01-08T17:11:05.249Z,4.40
2019-01-08T17:13:36.308Z,4.40
2019-01-08T17:16:07.687Z,4.40
2019-01-08T17:18:38.419Z,4.40
2019-01-08T17:21:08.811Z,4.50
2019-01-08T17:31:10.947Z,4.50
2019-01-08T17:33:41.713Z,4.50
2019-01-08T17:36:12.091Z,4.50
2019-01-08T17:38:42.514Z,4.50
2019-01-08T17:41:12.918Z,4.50
2019-01-08T17:43:43.576Z,4.50
2019-01-08T17:46:13.903Z,4.70
2019-01-08T17:51:13.911Z,4.60
2019-01-08T17:56:14.169Z,4.60
2019-01-08T17:58:46.004Z,4.60
2019-01-08T18:01:20.260Z,4.60
2019-01-08T18:03:50.605Z,4.60
2019-01-08T18:06:21.183Z,4.60
2019-01-08T18:08:51.507Z,4.60
2019-01-08T18:11:21.915Z,4.60
2019-01-08T18:13:52.646Z,4.60
2019-01-08T18:21:24.230Z,4.70
2019-01-08T18:23:54.739Z,4.70
2019-01-08T18:28:54.735Z,4.70
2019-01-08T18:31:25.116Z,4.70
2019-01-08T18:33:55.976Z,4.70
2019-01-08T18:36:29.417Z,4.60
2019-01-08T18:38:59.796Z,4.60
2019-01-08T18:41:30.188Z,4.50
2019-01-08T18:44:00.560Z,4.50
2019-01-08T18:46:30.935Z,4.40
2019-01-08T18:49:01.504Z,4.50
2019-01-08T18:51:31.952Z,4.40
2019-01-08T18:54:02.487Z,4.40
2019-01-08T18:56:33.167Z,4.30
2019-01-08T18:59:03.647Z,4.20
2019-01-08T19:01:36.856Z,4.10
2019-01-08T19:04:07.414Z,4.10
2019-01-08T19:06:38.080Z,4.10
2019-01-08T19:09:37.414Z,4.10
2019-01-08T19:12:10.096Z,4.10
2019-01-08T19:14:44.008Z,4.00
2019-01-08T19:17:14.623Z,4.00
2019-01-08T19:19:45.076Z,3.90
2019-01-08T19:22:15.427Z,3.80
2019-01-08T19:27:16.451Z,3.80
2019-01-08T19:29:46.935Z,3.70
2019-01-08T19:34:49.388Z,3.70
2019-01-08T19:37:19.827Z,3.70
2019-01-08T19:39:50.165Z,3.70
2019-01-08T19:42:20.878Z,3.70
2019-01-08T19:47:21.447Z,3.70
2019-01-08T19:49:51.968Z,3.60
2019-01-08T19:52:22.388Z,3.70
2019-01-08T19:54:52.790Z,3.60
2019-01-08T19:57:26.616Z,3.50
2019-01-08T19:59:57.175Z,3.40
2019-01-08T20:02:31.513Z,3.30
2019-01-08T20:05:02.599Z,3.30
2019-01-08T20:07:33.065Z,3.20
2019-01-08T20:10:03.671Z,3.20
2019-01-08T20:12:34.165Z,3.30
2019-01-08T20:15:04.977Z,3.20
2019-01-08T20:17:35.455Z,3.10
2019-01-08T20:20:06.192Z,3.10
2019-01-08T20:22:36.586Z,3.10
2019-01-08T20:25:07.024Z,3.00
2019-01-08T20:27:37.455Z,2.90
2019-01-08T20:30:08.218Z,2.90
2019-01-08T20:35:10.195Z,2.90
2019-01-08T20:37:41.572Z,2.90
2019-01-08T20:43:53.158Z,2.80
2019-01-08T20:46:25.509Z,2.80
2019-01-08T20:48:55.877Z,2.80
2019-01-08T20:51:33.928Z,2.80
2019-01-08T20:54:04.354Z,2.80
2019-01-08T20:56:34.767Z,2.80
2019-01-08T20:59:05.184Z,2.80
2019-01-08T21:01:35.551Z,2.80
2019-01-08T21:04:05.876Z,2.80
2019-01-08T21:09:07.779Z,2.80
2019-01-08T21:11:40.498Z,2.80
2019-01-08T21:14:11.245Z,2.80
2019-01-08T21:20:17.479Z,2.80
2019-01-08T21:25:19.673Z,2.80
2019-01-08T21:27:50.123Z,2.70
2019-01-08T21:30:20.496Z,2.70
2019-01-08T21:35:47.743Z,2.80
2019-01-08T21:38:18.087Z,2.80
2019-01-08T21:40:50.267Z,2.80
2019-01-08T21:43:21.032Z,2.80
2019-01-08T21:45:51.723Z,2.80
2019-01-08T21:48:22.144Z,2.80
2019-01-08T21:50:52.511Z,2.80
2019-01-08T21:53:23.083Z,2.80
2019-01-08T21:55:53.512Z,2.70
2019-01-08T21:58:23.845Z,2.70
2019-01-08T22:00:54.212Z,2.70
2019-01-08T22:03:24.553Z,2.70
2019-01-08T22:05:54.975Z,2.60
2019-01-08T22:08:25.370Z,2.60
2019-01-08T22:10:55.749Z,2.60
2019-01-08T22:13:26.382Z,2.60
2019-01-08T22:15:56.879Z,2.50
2019-01-08T22:18:27.263Z,2.50
2019-01-08T22:20:57.696Z,2.50
2019-01-08T22:23:28.094Z,2.50
2019-01-08T22:25:59.400Z,2.50
2019-01-08T22:28:29.755Z,2.50
2019-01-08T22:31:09.918Z,2.60
2019-01-08T22:33:52.979Z,2.60
2019-01-08T22:36:27.287Z,2.60
2019-01-08T22:38:57.695Z,2.60
2019-01-08T22:41:28.467Z,2.70
2019-01-08T22:43:58.937Z,2.70
2019-01-08T22:46:29.312Z,2.70
2019-01-08T22:48:59.867Z,2.60
2019-01-08T22:51:30.928Z,2.70
2019-01-08T22:54:01.344Z,2.70
2019-01-08T22:56:54.871Z,2.70
2019-01-08T22:59:27.492Z,2.70
2019-01-08T23:01:58.564Z,2.70
2019-01-08T23:04:29.216Z,2.80
2019-01-08T23:07:01.119Z,2.70
2019-01-08T23:09:31.809Z,2.70
2019-01-08T23:12:05.279Z,2.70
2019-01-08T23:14:36.400Z,2.70
2019-01-08T23:17:06.764Z,2.70
2019-01-08T23:19:38.305Z,2.60
2019-01-08T23:22:08.749Z,2.60
2019-01-08T23:24:39.176Z,2.60
2019-01-08T23:27:09.812Z,2.70
2019-01-08T23:29:40.524Z,2.70
2019-01-08T23:32:13.021Z,2.70
2019-01-08T23:34:44.484Z,2.70
2019-01-08T23:37:15.807Z,2.70
2019-01-08T23:39:46.204Z,2.70
2019-01-08T23:42:16.543Z,2.70
2019-01-08T23:44:46.907Z,2.70
2019-01-08T23:47:17.551Z,2.70
2019-01-08T23:49:49.932Z,2.70
2019-01-08T23:52:29.523Z,2.70
2019-01-08T23:55:00.504Z,2.70
2019-01-08T23:57:32.408Z,2.80
